createdAt,value
2022-09-16T00:00:32.245Z,73.44
2022-09-16T00:02:59.000Z,73.62
2022-09-16T00:05:26.215Z,73.67
2022-09-16T00:07:53.817Z,73.55
2022-09-16T00:10:21.585Z,73.74
2022-09-16T00:12:49.149Z,73.96
2022-09-16T00:15:16.420Z,73.83
2022-09-16T00:17:43.112Z,73.65
2022-09-16T00:20:11.084Z,73.71
2022-09-16T00:22:37.726Z,73.89
2022-09-16T00:25:04.630Z,73.72
2022-09-16T00:27:31.300Z,73.87
2022-09-16T00:29:57.933Z,73.90
2022-09-16T00:32:25.129Z,73.81
2022-09-16T00:34:52.476Z,73.92
2022-09-16T00:37:19.349Z,73.93
2022-09-16T00:39:49.409Z,73.71
2022-09-16T00:42:18.128Z,73.94
2022-09-16T00:45:24.789Z,73.84
2022-09-16T00:47:59.232Z,73.88
2022-09-16T00:50:38.482Z,73.68
2022-09-16T00:53:09.088Z,73.83
2022-09-16T00:55:37.688Z,74.00
2022-09-16T00:58:35.338Z,73.89
2022-09-16T01:01:05.787Z,73.98
2022-09-16T01:03:43.203Z,74.03
2022-09-16T01:06:13.448Z,74.11
2022-09-16T01:08:42.867Z,74.29
2022-09-16T01:11:09.559Z,74.43
2022-09-16T01:13:37.567Z,74.59
2022-09-16T01:16:12.464Z,74.64
2022-09-16T01:19:07.745Z,74.73
2022-09-16T01:21:34.310Z,74.56
2022-09-16T01:24:07.759Z,74.68
2022-09-16T01:26:50.316Z,75.02
2022-09-16T01:29:55.661Z,75.08
2022-09-16T01:32:49.217Z,74.80
2022-09-16T01:35:57.892Z,74.90
2022-09-16T01:38:55.573Z,75.08
2022-09-16T01:41:31.707Z,75.01
2022-09-16T01:44:06.340Z,75.15
2022-09-16T01:46:32.898Z,75.33
2022-09-16T01:49:16.183Z,75.36
2022-09-16T01:52:01.712Z,75.46
2022-09-16T01:54:41.383Z,75.29
2022-09-16T01:57:14.924Z,75.74
2022-09-16T01:59:46.364Z,75.66
2022-09-16T02:02:22.066Z,75.92
2022-09-16T02:04:54.557Z,75.78
2022-09-16T02:07:27.928Z,75.86
2022-09-16T02:09:58.140Z,75.90
2022-09-16T02:12:30.795Z,75.90
2022-09-16T02:15:03.944Z,76.24
2022-09-16T02:17:33.275Z,76.10
2022-09-16T02:20:13.218Z,76.25
2022-09-16T02:23:11.008Z,76.38
2022-09-16T02:25:40.310Z,76.24
2022-09-16T02:28:13.243Z,76.51
2022-09-16T02:30:49.779Z,76.65
2022-09-16T02:33:17.882Z,76.66
2022-09-16T02:35:48.560Z,76.64
2022-09-16T02:38:21.465Z,76.92
2022-09-16T02:40:55.479Z,76.76
2022-09-16T02:43:23.024Z,76.95
2022-09-16T02:46:06.362Z,77.14
2022-09-16T02:48:57.472Z,76.88
2022-09-16T02:51:51.513Z,77.12
2022-09-16T02:54:33.713Z,77.12
2022-09-16T02:57:00.389Z,77.00
2022-09-16T02:59:27.121Z,77.14
2022-09-16T03:01:53.810Z,77.31
2022-09-16T03:04:20.772Z,77.36
2022-09-16T03:06:48.128Z,77.43
2022-09-16T03:09:18.183Z,77.50
2022-09-16T03:12:09.804Z,77.72
2022-09-16T03:14:53.104Z,77.65
2022-09-16T03:17:35.472Z,77.64
2022-09-16T03:20:20.898Z,77.70
2022-09-16T03:23:28.776Z,77.37
2022-09-16T03:26:01.046Z,77.46
2022-09-16T03:28:39.295Z,77.55
2022-09-16T03:31:27.422Z,77.74
2022-09-16T03:34:13.337Z,77.79
2022-09-16T03:36:46.047Z,77.65
2022-09-16T03:39:14.502Z,77.45
2022-09-16T03:41:41.543Z,77.56
2022-09-16T03:44:08.201Z,77.79
2022-09-16T03:46:34.874Z,78.26
2022-09-16T03:49:01.728Z,78.18
2022-09-16T03:51:28.347Z,78.04
2022-09-16T03:53:55.277Z,78.11
2022-09-16T03:56:24.248Z,78.35
2022-09-16T03:58:51.724Z,78.24
2022-09-16T04:01:18.517Z,78.54
2022-09-16T04:03:45.189Z,78.63
2022-09-16T04:06:11.781Z,78.58
2022-09-16T04:08:39.816Z,78.43
2022-09-16T04:11:06.966Z,78.54
2022-09-16T04:13:35.271Z,78.69
2022-09-16T04:16:04.225Z,78.72
2022-09-16T04:18:32.237Z,78.51
2022-09-16T04:21:00.255Z,78.66
2022-09-16T04:23:27.797Z,78.63
2022-09-16T04:25:59.830Z,78.72
2022-09-16T04:28:27.644Z,78.76
2022-09-16T04:30:54.615Z,78.71
2022-09-16T04:33:21.321Z,78.85
2022-09-16T04:35:47.995Z,78.94
2022-09-16T04:38:14.660Z,78.94
2022-09-16T04:40:41.386Z,78.76
2022-09-16T04:43:08.062Z,79.00
2022-09-16T04:45:34.677Z,78.82
2022-09-16T04:48:01.336Z,78.95
2022-09-16T04:50:27.936Z,78.90
2022-09-16T04:52:54.600Z,79.02
2022-09-16T04:55:23.254Z,79.18
2022-09-16T04:57:50.463Z,79.29
2022-09-16T05:00:17.216Z,79.30
2022-09-16T05:02:45.639Z,79.36
2022-09-16T05:05:12.602Z,79.22
2022-09-16T05:07:39.297Z,79.42
2022-09-16T05:10:06.621Z,79.47
2022-09-16T05:12:33.300Z,79.56
2022-09-16T05:15:00.023Z,79.56
2022-09-16T05:17:49.755Z,79.63
2022-09-16T05:20:15.857Z,79.67
2022-09-16T05:22:42.565Z,79.51
2022-09-16T05:25:09.518Z,79.59
2022-09-16T05:27:36.246Z,79.50
2022-09-16T05:30:02.945Z,79.61
2022-09-16T05:32:29.511Z,79.58
2022-09-16T05:34:56.354Z,79.55
2022-09-16T05:37:23.085Z,79.67
2022-09-16T05:39:49.771Z,79.67
2022-09-16T05:42:16.513Z,79.82
2022-09-16T05:44:43.181Z,80.00
2022-09-16T05:47:09.793Z,79.92
2022-09-16T05:49:37.201Z,79.98
2022-09-16T05:52:03.840Z,79.98
2022-09-16T05:54:31.562Z,79.90
2022-09-16T05:56:58.190Z,79.80
2022-09-16T05:59:24.964Z,79.90
2022-09-16T06:01:51.727Z,80.08
2022-09-16T06:04:18.484Z,80.00
2022-09-16T06:06:46.863Z,80.41
2022-09-16T06:09:23.679Z,80.21
2022-09-16T06:11:53.178Z,80.04
2022-09-16T06:14:23.168Z,80.27
2022-09-16T06:16:50.635Z,80.36
2022-09-16T06:19:18.481Z,80.37
2022-09-16T06:21:46.323Z,80.25
2022-09-16T06:24:15.424Z,80.26
2022-09-16T06:26:44.056Z,80.24
2022-09-16T06:29:11.908Z,80.17
2022-09-16T06:31:40.582Z,80.27
2022-09-16T06:34:08.869Z,80.37
2022-09-16T06:36:42.754Z,80.50
2022-09-16T06:39:12.564Z,80.39
2022-09-16T06:41:39.155Z,80.26
2022-09-16T06:44:05.801Z,80.32
2022-09-16T06:46:32.399Z,80.26
2022-09-16T06:49:04.324Z,80.31
2022-09-16T06:51:32.654Z,80.46
2022-09-16T06:54:01.595Z,80.47
2022-09-16T06:56:28.315Z,80.31
2022-09-16T06:58:55.934Z,80.40
2022-09-16T07:01:25.761Z,80.34
2022-09-16T07:03:53.071Z,80.24
2022-09-16T07:06:22.064Z,80.18
2022-09-16T07:08:49.224Z,80.26
2022-09-16T07:11:17.135Z,80.09
2022-09-16T07:13:45.069Z,80.25
2022-09-16T07:16:15.079Z,80.23
2022-09-16T07:18:42.709Z,79.98
2022-09-16T07:21:20.821Z,80.06
2022-09-16T07:23:48.866Z,79.92
2022-09-16T07:26:21.578Z,79.95
2022-09-16T07:28:49.747Z,79.90
2022-09-16T07:31:20.283Z,79.80
2022-09-16T07:33:50.390Z,79.86
2022-09-16T07:36:20.260Z,79.54
2022-09-16T07:38:49.094Z,79.70
2022-09-16T07:41:18.990Z,79.75
2022-09-16T07:43:46.784Z,79.72
2022-09-16T07:46:17.113Z,79.57
2022-09-16T07:48:45.272Z,79.61
2022-09-16T07:51:17.095Z,79.61
2022-09-16T07:53:44.681Z,79.59
2022-09-16T07:56:14.195Z,79.60
2022-09-16T07:58:41.736Z,79.66
2022-09-16T08:01:09.397Z,79.46
2022-09-16T08:03:37.603Z,79.47
2022-09-16T08:06:06.931Z,79.46
2022-09-16T08:08:34.364Z,79.51
2022-09-16T08:11:02.184Z,79.32
2022-09-16T08:13:30.920Z,79.37
2022-09-16T08:16:06.917Z,79.35
2022-09-16T08:18:34.884Z,79.34
2022-09-16T08:21:12.665Z,79.33
2022-09-16T08:23:40.450Z,79.41
2022-09-16T08:26:11.092Z,79.32
2022-09-16T08:28:45.501Z,79.11
2022-09-16T08:31:24.581Z,79.28
2022-09-16T08:33:51.288Z,79.61
2022-09-16T08:36:21.145Z,79.69
2022-09-16T08:38:50.113Z,80.20
2022-09-16T08:41:48.504Z,80.65
2022-09-16T08:44:27.135Z,81.76
2022-09-16T08:46:55.609Z,82.96
2022-09-16T08:49:31.314Z,83.58
2022-09-16T08:52:00.786Z,84.74
2022-09-16T08:54:34.781Z,85.95
2022-09-16T08:57:04.891Z,86.55
2022-09-16T08:59:41.196Z,87.13
2022-09-16T09:02:48.461Z,85.40
2022-09-16T09:05:36.537Z,81.99
2022-09-16T09:08:15.593Z,77.04
2022-09-16T09:10:45.195Z,71.57
2022-09-16T09:13:31.093Z,66.87
2022-09-16T09:16:19.903Z,63.67
2022-09-16T09:19:11.217Z,61.20
2022-09-16T09:21:57.064Z,58.24
2022-09-16T09:24:48.330Z,56.24
2022-09-16T09:27:26.466Z,53.46
2022-09-16T09:30:21.417Z,53.04
2022-09-16T09:33:03.383Z,51.23
2022-09-16T09:35:53.183Z,50.66
2022-09-16T09:38:29.117Z,49.78
2022-09-16T09:41:06.243Z,48.72
2022-09-16T09:43:45.581Z,47.91
2022-09-16T09:46:31.909Z,46.78
2022-09-16T09:49:02.608Z,46.04
2022-09-16T09:51:41.071Z,46.27
2022-09-16T09:54:37.703Z,45.87
2022-09-16T09:57:29.088Z,45.08
2022-09-16T10:00:14.582Z,44.26
2022-09-16T10:02:48.936Z,44.49
2022-09-16T10:05:25.001Z,45.42
2022-09-16T10:07:55.841Z,45.00
2022-09-16T10:10:27.440Z,44.25
2022-09-16T10:12:54.443Z,44.25
2022-09-16T10:15:29.062Z,44.57
2022-09-16T10:18:00.168Z,45.25
2022-09-16T10:20:29.405Z,45.24
2022-09-16T10:23:19.287Z,46.96
2022-09-16T10:25:46.132Z,46.89
2022-09-16T10:28:26.705Z,45.91
2022-09-16T10:30:56.081Z,44.53
2022-09-16T10:33:30.511Z,43.51
2022-09-16T10:36:00.860Z,42.85
2022-09-16T10:38:46.751Z,42.14
2022-09-16T10:41:46.010Z,42.47
2022-09-16T10:44:25.273Z,42.58
2022-09-16T10:47:00.669Z,42.27
2022-09-16T10:49:35.499Z,42.31
2022-09-16T10:52:23.306Z,41.62
2022-09-16T10:54:50.489Z,42.21
2022-09-16T10:57:32.122Z,42.78
2022-09-16T11:00:24.613Z,44.03
2022-09-16T11:03:12.761Z,45.43
2022-09-16T11:05:45.395Z,46.63
2022-09-16T11:08:21.260Z,47.45
2022-09-16T11:11:03.335Z,47.89
2022-09-16T11:13:50.494Z,48.40
2022-09-16T11:16:48.631Z,48.66
2022-09-16T11:19:31.410Z,49.23
2022-09-16T11:22:01.122Z,49.93
2022-09-16T11:24:33.458Z,50.56
2022-09-16T11:27:08.799Z,51.19
2022-09-16T11:29:47.225Z,51.70
2022-09-16T11:33:08.412Z,51.80
2022-09-16T11:35:47.551Z,52.47
2022-09-16T11:38:23.180Z,52.70
2022-09-16T11:41:31.509Z,52.70
2022-09-16T11:44:25.597Z,53.43
2022-09-16T11:47:15.936Z,53.57
2022-09-16T11:50:11.872Z,53.37
2022-09-16T11:53:25.489Z,53.73
2022-09-16T11:56:14.977Z,53.88
2022-09-16T11:58:47.579Z,53.99
2022-09-16T12:01:39.897Z,53.96
2022-09-16T12:04:23.564Z,53.94
2022-09-16T12:06:58.425Z,54.16
2022-09-16T12:09:34.416Z,54.00
2022-09-16T12:12:19.790Z,53.43
2022-09-16T12:14:54.601Z,53.44
2022-09-16T12:17:25.699Z,53.81
2022-09-16T12:20:03.771Z,54.17
2022-09-16T12:22:36.430Z,54.23
2022-09-16T12:25:15.149Z,54.32
2022-09-16T12:27:57.877Z,54.12
2022-09-16T12:30:36.084Z,53.67
2022-09-16T12:33:21.057Z,53.83
2022-09-16T12:36:03.289Z,53.63
2022-09-16T12:38:31.046Z,53.73
2022-09-16T12:41:06.664Z,52.96
2022-09-16T12:43:44.974Z,52.12
2022-09-16T12:46:29.953Z,52.41
2022-09-16T12:49:25.644Z,52.69
2022-09-16T12:52:11.910Z,52.57
2022-09-16T12:55:08.805Z,51.95
2022-09-16T12:57:51.620Z,51.63
2022-09-16T13:00:26.087Z,51.42
2022-09-16T13:03:00.569Z,51.33
2022-09-16T13:05:33.400Z,51.22
2022-09-16T13:08:07.867Z,51.59
2022-09-16T13:11:00.699Z,52.06
2022-09-16T13:13:35.500Z,52.49
2022-09-16T13:16:05.332Z,52.73
2022-09-16T13:18:43.070Z,51.99
2022-09-16T13:21:23.936Z,51.60
2022-09-16T13:24:01.897Z,51.19
2022-09-16T13:26:40.034Z,51.33
2022-09-16T13:29:26.507Z,51.82
2022-09-16T13:31:53.565Z,51.64
2022-09-16T13:34:21.867Z,51.73
2022-09-16T13:36:48.619Z,51.46
